Time;durP1;ratioP1;P1;durP2;ratioP2;P2;SDS_P1;SDS_P2;PMS_P1;PMS_P2;Temp;Humidity;BMP_temperature;BMP_pressure;BME280_temperature;BME280_humidity;BME280_pressure;Samples;Min_cycle;Max_cycle;Signal;HPM_P1;HPM_P2
2023/10/12 00:01:58;;;;;;;4.85;2.10;;;21.60;71.90;;;;;;4973420;28;20427;-24
2023/10/12 00:04:27;;;;;;;2.72;1.73;;;20.20;70.70;;;;;;4972721;28;20057;-24
2023/10/12 00:06:53;;;;;;;4.55;2.30;;;20.40;88.00;;;;;;4972784;28;20054;-24
2023/10/12 00:09:24;;;;;;;3.60;2.28;;;21.20;88.50;;;;;;4973024;28;20488;-23
2023/10/12 00:11:57;;;;;;;3.55;2.08;;;20.20;88.00;;;;;;4973165;28;20081;-24
2023/10/12 00:14:26;;;;;;;3.00;2.08;;;20.60;88.50;;;;;;4977957;28;20051;-24
2023/10/12 00:16:53;;;;;;;4.13;2.00;;;;;;;;;;4992316;28;20076;-25
2023/10/12 00:19:23;;;;;;;3.97;2.05;;;20.90;88.20;;;;;;4992379;28;20093;-24
2023/10/12 00:21:50;;;;;;;3.80;1.98;;;21.00;81.90;;;;;;4974452;28;20051;-24
2023/10/12 00:24:18;;;;;;;3.13;1.92;;;19.80;88.50;;;;;;4972698;28;20109;-24
2023/10/12 00:26:45;;;;;;;3.58;1.90;;;19.90;82.60;;;;;;4972825;28;20427;-24
2023/10/12 00:29:13;;;;;;;3.35;2.03;;;20.40;74.60;;;;;;4972918;28;20047;-24
2023/10/12 00:31:42;;;;;;;2.53;1.80;;;19.70;80.00;;;;;;4972768;28;20057;-24
2023/10/12 00:34:11;;;;;;;5.90;2.17;;;20.40;88.40;;;;;;4972896;28;20061;-24
2023/10/12 00:36:40;;;;;;;4.32;2.38;;;19.50;80.20;;;;;;4971756;28;20050;-25
2023/10/12 00:39:10;;;;;;;4.75;1.80;;;19.50;88.00;;;;;;4972781;28;20073;-24
2023/10/12 00:41:37;;;;;;;4.03;2.20;;;20.90;88.40;;;;;;4972590;28;20488;-24
2023/10/12 00:44:10;;;;;;;2.83;1.80;;;20.00;75.70;;;;;;4972473;28;20051;-25
2023/10/12 00:46:48;;;;;;;3.92;2.00;;;20.60;88.50;;;;;;4972922;28;20073;-24
2023/10/12 00:49:16;;;;;;;2.85;1.85;;;20.10;88.40;;;;;;4972609;28;20054;-24
2023/10/12 00:51:49;;;;;;;3.88;2.15;;;;;;;;;;4972817;28;20047;-24
2023/10/12 00:54:25;;;;;;;3.17;1.95;;;21.00;89.00;;;;;;4972207;28;20219;-24
2023/10/12 00:56:54;;;;;;;2.63;1.52;;;20.40;88.30;;;;;;4985267;28;20109;-24
2023/10/12 00:59:22;;;;;;;3.75;1.80;;;;;;;;;;4991953;28;20097;-26
2023/10/12 01:01:50;;;;;;;2.08;1.73;;;20.10;70.70;;;;;;4991998;28;20504;-24
2023/10/12 01:04:17;;;;;;;3.10;1.90;;;;;;;;;;4991702;28;20502;-24
2023/10/12 01:06:47;;;;;;;2.65;1.65;;;20.50;88.60;;;;;;4991891;28;20105;-24
2023/10/12 01:09:19;;;;;;;3.03;1.75;;;20.30;76.30;;;;;;4992500;28;20054;-24
2023/10/12 01:11:52;;;;;;;3.97;1.90;;;20.10;88.10;;;;;;4977920;28;20050;-24
2023/10/12 01:14:26;;;;;;;3.42;1.80;;;;;;;;;;4980462;28;20050;-25
2023/10/12 01:16:57;;;;;;;2.63;1.60;;;20.50;88.60;;;;;;4995421;28;20050;-24
2023/10/12 01:19:24;;;;;;;3.95;1.95;;;20.00;88.30;;;;;;4995260;28;20054;-24
2023/10/12 01:21:54;;;;;;;2.70;1.60;;;20.50;88.50;;;;;;4995133;28;20081;-24
2023/10/12 01:24:30;;;;;;;3.25;1.75;;;;;;;;;;4995070;28;20056;-24
2023/10/12 01:26:57;;;;;;;2.65;1.70;;;20.30;88.40;;;;;;4991027;28;20125;-24
2023/10/12 01:29:25;;;;;;;2.97;1.67;;;19.60;72.30;;;;;;4975619;28;20488;-24
2023/10/12 01:32:05;;;;;;;3.83;1.80;;;20.10;88.20;;;;;;4975536;28;20051;-24
2023/10/12 01:34:36;;;;;;;4.35;1.63;;;19.40;75.10;;;;;;4975930;28;20078;-24
2023/10/12 01:37:11;;;;;;;2.65;1.58;;;20.00;70.60;;;;;;4974584;28;20058;-25
2023/10/12 01:39:39;;;;;;;4.43;1.55;;;;;;;;;;4975377;28;20081;-25
2023/10/12 01:42:06;;;;;;;4.38;1.70;;;20.20;88.00;;;;;;4975742;28;20137;-24
2023/10/12 01:44:33;;;;;;;3.42;1.60;;;;;;;;;;4975296;28;20054;-24
2023/10/12 01:47:00;;;;;;;4.20;1.77;;;20.10;88.80;;;;;;4975296;28;20570;-24
2023/10/12 01:49:30;;;;;;;3.45;1.50;;;19.70;87.90;;;;;;4975212;28;20558;-24
2023/10/12 01:51:57;;;;;;;2.35;1.55;;;20.20;88.10;;;;;;4975408;28;20134;-24
2023/10/12 01:54:25;;;;;;;3.60;1.70;;;19.20;72.20;;;;;;4975203;28;20053;-23
2023/10/12 01:56:53;;;;;;;3.05;1.55;;;;;;;;;;4975117;28;20389;-25
2023/10/12 01:59:20;;;;;;;4.97;1.40;;;19.50;88.10;;;;;;4975036;28;20051;-25
2023/10/12 02:01:53;;;;;;;3.30;1.48;;;20.00;87.90;;;;;;4975188;28;20061;-25
2023/10/12 02:04:21;;;;;;;2.70;1.55;;;20.00;76.10;;;;;;4975460;28;20113;-25
2023/10/12 02:06:48;;;;;;;3.45;1.60;;;20.80;75.90;;;;;;4974993;28;20495;-25
2023/10/12 02:09:15;;;;;;;2.83;1.63;;;;;;;;;;4974757;28;20118;-25
2023/10/12 02:11:44;;;;;;;2.20;1.50;;;20.50;75.10;;;;;;4974892;28;20530;-25
2023/10/12 02:14:12;;;;;;;2.70;1.60;;;19.20;88.40;;;;;;4978621;28;20097;-25
2023/10/12 02:16:39;;;;;;;4.32;1.50;;;;;;;;;;4994565;28;20077;-25
2023/10/12 02:19:07;;;;;;;3.50;1.65;;;20.50;88.30;;;;;;4994435;28;20109;-26
2023/10/12 02:21:37;;;;;;;2.47;1.60;;;19.10;87.90;;;;;;4993298;28;20550;-25
2023/10/12 02:24:12;;;;;;;3.22;1.60;;;20.90;88.90;;;;;;4994200;28;20054;-25
2023/10/12 02:26:51;;;;;;;2.25;1.55;;;;;;;;;;4979553;28;20098;-25
2023/10/12 02:29:19;;;;;;;2.90;1.60;;;19.60;87.80;;;;;;4967321;28;20061;-25
2023/10/12 02:31:55;;;;;;;3.42;1.40;;;19.90;87.90;;;;;;4974639;28;20136;-25
2023/10/12 02:34:25;;;;;;;3.22;1.70;;;20.00;81.00;;;;;;4974218;28;20129;-25
2023/10/12 02:37:00;;;;;;;3.38;1.50;;;19.80;87.80;;;;;;4974042;28;20093;-25
2023/10/12 02:39:27;;;;;;;;;;;19.90;71.00;;;;;;4975120;28;20659;-26
2023/10/12 02:42:17;;;;;;;4.10;1.60;;;19.20;73.10;;;;;;4974180;28;19922;-25
2023/10/12 02:44:51;;;;;;;2.63;1.50;;;20.90;89.00;;;;;;4974012;28;20051;-25
2023/10/12 02:47:22;;;;;;;2.92;1.48;;;;;;;;;;4974513;28;20065;-25
2023/10/12 02:49:49;;;;;;;3.22;1.42;;;20.00;88.20;;;;;;4974326;28;20090;-25
2023/10/12 02:52:16;;;;;;;3.40;1.55;;;;;;;;;;4974245;28;20514;-24
2023/10/12 02:54:50;;;;;;;3.55;1.40;;;19.40;87.80;;;;;;4974063;28;20057;-25
2023/10/12 02:57:19;;;;;;;2.33;1.20;;;19.60;87.90;;;;;;4974324;28;20468;-25
2023/10/12 02:59:56;;;;;;;2.55;1.33;;;18.70;87.40;;;;;;4973460;28;20047;-25
2023/10/12 03:02:31;;;;;;;2.70;1.40;;;20.20;88.20;;;;;;4974339;28;20138;-25
2023/10/12 03:04:59;;;;;;;2.50;1.30;;;20.00;80.80;;;;;;4973937;28;20057;-25
2023/10/12 03:07:27;;;;;;;2.55;1.40;;;19.70;74.50;;;;;;4973892;28;20570;-25
2023/10/12 03:09:57;;;;;;;3.40;1.65;;;;;;;;;;4974056;28;20101;-24
2023/10/12 03:12:24;;;;;;;4.25;1.45;;;20.60;88.80;;;;;;4973792;28;20062;-25
2023/10/12 03:14:52;;;;;;;3.97;1.50;;;20.20;85.30;;;;;;4982399;28;20050;-25
2023/10/12 03:17:19;;;;;;;2.67;1.35;;;19.90;72.30;;;;;;4974499;28;20047;-25
2023/10/12 03:19:55;;;;;;;3.47;1.63;;;20.20;88.60;;;;;;4973876;28;20058;-25
2023/10/12 03:22:31;;;;;;;3.35;1.50;;;;;;;;;;4973661;28;20082;-25
2023/10/12 03:25:13;;;;;;;2.42;1.30;;;19.40;83.60;;;;;;4973452;28;20126;-25
2023/10/12 03:27:40;;;;;;;2.70;1.30;;;20.10;80.60;;;;;;4973514;28;20112;-25
2023/10/12 03:30:13;;;;;;;2.88;1.33;;;19.80;70.50;;;;;;4973723;28;20054;-25
2023/10/12 03:32:41;;;;;;;2.42;1.38;;;19.10;88.00;;;;;;4972940;28;20074;-25
2023/10/12 03:35:12;;;;;;;2.25;1.15;;;19.80;70.50;;;;;;4973158;28;20129;-25
2023/10/12 03:43:19;;;;;;;3.03;1.40;;;;;;;;;;4973545;28;20046;-25
2023/10/12 03:46:00;;;;;;;2.63;1.40;;;19.50;79.20;;;;;;4973292;28;20061;-25
2023/10/12 03:48:47;;;;;;;1.80;1.30;;;;;;;;;;4973474;28;20151;-24
2023/10/12 03:51:25;;;;;;;2.42;1.20;;;19.70;70.50;;;;;;4954192;28;20134;-25
2023/10/12 03:53:57;;;;;;;2.88;1.40;;;19.30;71.80;;;;;;4953971;28;20054;-25
2023/10/12 03:56:28;;;;;;;3.55;1.52;;;;;;;;;;4953853;28;20085;-25
2023/10/12 03:59:01;;;;;;;3.90;1.50;;;;;;;;;;4953985;28;20047;-24
2023/10/12 04:01:35;;;;;;;3.22;1.35;;;19.80;79.30;;;;;;4953866;28;20455;-27
2023/10/12 04:04:09;;;;;;;2.35;1.20;;;20.60;88.90;;;;;;4954025;28;20623;-26
2023/10/12 04:07:06;;;;;;;2.70;1.33;;;;;;;;;;4961494;28;20054;-27
2023/10/12 04:09:31;;;;;;;3.60;1.83;;;19.70;87.90;;;;;;4973261;28;20046;-27
2023/10/12 04:12:11;;;;;;;3.00;1.50;;;19.70;78.00;;;;;;4972676;28;20046;-27
2023/10/12 04:14:44;;;;;;;3.22;1.30;;;19.70;70.50;;;;;;4980083;28;20057;-27
2023/10/12 04:17:19;;;;;;;3.03;1.40;;;18.60;76.70;;;;;;4992191;28;20185;-26
2023/10/12 04:20:00;;;;;;;2.38;1.65;;;;;;;;;;4992550;28;20124;-27
2023/10/12 04:22:35;;;;;;;3.70;1.40;;;20.60;88.80;;;;;;4974776;28;20059;-27
2023/10/12 04:25:12;;;;;;;3.33;1.42;;;;;;;;;;4953360;28;20411;-27
2023/10/12 04:27:41;;;;;;;2.15;1.20;;;19.90;88.50;;;;;;4953615;28;20049;-27
2023/10/12 04:30:20;;;;;;;1.95;1.20;;;19.20;77.80;;;;;;4953656;28;20051;-27
2023/10/12 04:33:11;;;;;;;2.97;1.40;;;19.00;75.00;;;;;;4953489;28;20408;-27
2023/10/12 04:35:52;;;;;;;3.00;1.40;;;19.90;88.50;;;;;;4953237;28;20051;-24
2023/10/12 04:38:29;;;;;;;3.20;1.40;;;;;;;;;;4953529;28;20544;-24
2023/10/12 04:41:37;;;;;;;2.60;1.23;;;19.80;88.50;;;;;;4967448;28;20057;-25
2023/10/12 04:44:25;;;;;;;2.95;1.38;;;18.80;70.90;;;;;;4954223;28;20086;-25
2023/10/12 04:46:58;;;;;;;4.05;1.50;;;20.20;88.40;;;;;;4957311;28;20153;-25
2023/10/12 04:52:25;;;;;;;3.55;1.42;;;19.80;87.90;;;;;;4933262;28;20066;-25
2023/10/12 04:54:59;;;;;;;2.97;1.25;;;20.10;88.70;;;;;;4957378;28;20072;-27
2023/10/12 04:57:27;;;;;;;1.95;1.20;;;19.80;88.50;;;;;;4970818;28;20510;-27
2023/10/12 05:00:07;;;;;;;2.67;1.20;;;20.70;82.70;;;;;;4976334;28;20047;-26
2023/10/12 05:02:43;;;;;;;2.42;1.20;;;;;;;;;;4976218;28;20460;-25
2023/10/12 05:05:54;;;;;;;3.15;1.40;;;19.80;78.30;;;;;;4976060;28;20065;-26
2023/10/12 05:08:05;;;;;;;2.92;1.35;;;;;;;;;;4975732;28;20058;-26
2023/10/12 05:10:42;;;;;;;2.17;1.48;;;;;;;;;;4976378;28;20105;-27
2023/10/12 05:13:10;;;;;;;2.38;1.30;;;19.40;88.00;;;;;;4975714;28;20057;-26
2023/10/12 05:15:39;;;;;;;3.25;1.30;;;19.70;77.10;;;;;;4990885;28;20090;-27
2023/10/12 05:18:07;;;;;;;1.98;1.20;;;19.30;75.90;;;;;;4983046;28;20051;-27
2023/10/12 05:20:35;;;;;;;2.85;1.25;;;19.80;88.70;;;;;;4975878;28;20106;-23
2023/10/12 05:23:04;;;;;;;3.90;1.30;;;19.50;70.50;;;;;;4975910;28;20101;-24
2023/10/12 05:25:47;;;;;;;1.95;1.10;;;20.10;88.60;;;;;;4975660;28;20469;-23
2023/10/12 05:28:15;;;;;;;3.08;1.30;;;19.50;70.50;;;;;;4975623;28;20078;-26
2023/10/12 05:30:47;;;;;;;2.30;1.10;;;19.80;83.30;;;;;;4975417;28;20043;-23
2023/10/12 05:33:37;;;;;;;3.38;1.15;;;19.80;88.80;;;;;;4975768;28;20061;-23
2023/10/12 05:36:08;;;;;;;3.33;1.30;;;19.20;86.80;;;;;;4974695;28;20086;-23
2023/10/12 05:38:36;;;;;;;2.13;1.10;;;19.30;88.50;;;;;;4975734;28;20050;-23
2023/10/12 05:41:04;;;;;;;2.35;1.10;;;;;;;;;;4975502;28;20469;-27
2023/10/12 05:43:33;;;;;;;1.80;1.10;;;19.30;78.60;;;;;;4975655;28;20059;-24
2023/10/12 05:46:03;;;;;;;1.67;1.20;;;19.30;81.50;;;;;;4974637;28;20050;-23
2023/10/12 05:48:33;;;;;;;3.42;1.30;;;19.10;88.10;;;;;;4972645;28;20094;-23
2023/10/12 05:51:00;;;;;;;2.25;1.42;;;19.80;88.80;;;;;;4975352;28;20492;-24
2023/10/12 05:53:28;;;;;;;2.55;1.30;;;19.80;88.60;;;;;;4975107;28;20523;-23
2023/10/12 05:55:56;;;;;;;1.85;1.20;;;19.30;80.00;;;;;;4974718;28;20051;-24
2023/10/12 05:58:23;;;;;;;2.28;1.23;;;20.60;71.20;;;;;;4975107;28;20070;-25
2023/10/12 06:00:52;;;;;;;2.17;1.35;;;19.00;88.10;;;;;;4974001;28;20097;-23
2023/10/12 06:03:20;;;;;;;5.80;1.40;;;20.70;89.00;;;;;;4973998;28;20050;-23
2023/10/12 06:05:48;;;;;;;6.40;1.30;;;;;;;;;;4974472;28;20492;-26
2023/10/12 06:08:18;;;;;;;5.03;1.90;;;19.50;88.70;;;;;;4975263;28;20089;-23
2023/10/12 06:10:46;;;;;;;3.20;1.30;;;20.30;89.20;;;;;;4975250;28;20117;-23
2023/10/12 06:13:14;;;;;;;3.67;1.50;;;20.50;88.90;;;;;;4974595;28;20051;-23
2023/10/12 06:15:42;;;;;;;3.15;1.35;;;19.30;88.50;;;;;;4990381;28;20100;-23
2023/10/12 06:18:10;;;;;;;3.00;1.50;;;20.40;89.20;;;;;;4989158;28;20047;-23
2023/10/12 06:20:40;;;;;;;2.92;1.30;;;19.30;88.40;;;;;;4975049;28;20068;-23
2023/10/12 06:23:09;;;;;;;2.78;1.20;;;19.60;70.80;;;;;;4974923;28;20086;-25
2023/10/12 06:25:38;;;;;;;3.67;1.38;;;19.60;70.90;;;;;;4974864;28;20154;-26
2023/10/12 06:28:16;;;;;;;3.40;1.65;;;20.80;89.20;;;;;;4963343;28;20083;-23
2023/10/12 06:30:43;;;;;;;2.40;1.25;;;18.60;88.50;;;;;;4963432;28;20476;-23
2023/10/12 06:33:14;;;;;;;4.03;1.23;;;;;;;;;;4974790;28;20120;-23
2023/10/12 06:35:58;;;;;;;2.63;1.50;;;19.30;74.60;;;;;;4974147;28;20058;-24
2023/10/12 06:38:36;;;;;;;3.28;1.52;;;19.60;70.90;;;;;;4973980;28;20074;-24
2023/10/12 06:41:27;;;;;;;1.98;1.20;;;20.40;89.30;;;;;;4968360;28;20043;-23
2023/10/12 06:43:58;;;;;;;3.30;1.13;;;18.70;88.10;;;;;;4965116;28;20046;-23
2023/10/12 06:46:27;;;;;;;3.58;1.33;;;19.70;84.50;;;;;;4964770;28;20050;-24
2023/10/12 06:49:00;;;;;;;2.75;1.20;;;19.70;88.70;;;;;;4965527;28;20043;-23
2023/10/12 06:51:28;;;;;;;2.05;1.02;;;19.90;79.40;;;;;;4974608;28;20054;-24
2023/10/12 06:54:06;;;;;;;2.35;1.13;;;19.40;76.40;;;;;;4970080;28;20130;-24
2023/10/12 06:56:38;;;;;;;2.42;1.20;;;20.00;89.20;;;;;;4954571;28;20481;-23
2023/10/12 06:59:11;;;;;;;2.33;1.20;;;18.50;80.40;;;;;;4954983;28;20051;-24
2023/10/12 07:01:39;;;;;;;3.03;1.33;;;18.50;88.40;;;;;;4954662;28;20408;-23
2023/10/12 07:04:13;;;;;;;2.92;1.25;;;20.00;88.80;;;;;;4955078;28;20054;-23
2023/10/12 07:06:40;;;;;;;3.22;1.30;;;19.80;71.00;;;;;;4954038;28;20043;-25
2023/10/12 07:09:08;;;;;;;2.92;1.20;;;;;;;;;;4957398;28;20058;-25
2023/10/12 07:11:39;;;;;;;2.70;1.23;;;18.60;88.20;;;;;;4962641;28;20055;-23
2023/10/12 07:14:07;;;;;;;4.00;1.35;;;19.60;82.40;;;;;;4959748;28;20054;-23
2023/10/12 07:16:52;;;;;;;3.15;1.25;;;20.80;88.90;;;;;;4963893;28;20094;-24
2023/10/12 07:19:21;;;;;;;2.47;1.30;;;19.70;88.50;;;;;;4965635;28;20055;-23
2023/10/12 07:21:53;;;;;;;3.17;1.30;;;;;;;;;;4973604;28;20047;-23
2023/10/12 07:24:22;;;;;;;2.78;1.38;;;;;;;;;;4967060;28;20053;-26
2023/10/12 07:26:49;;;;;;;2.45;1.20;;;20.20;89.00;;;;;;4972305;28;20043;-23
2023/10/12 07:29:31;;;;;;;1.95;1.20;;;19.70;70.70;;;;;;4970574;28;20054;-23
2023/10/12 07:31:59;;;;;;;2.72;1.17;;;18.80;87.90;;;;;;4954659;28;20497;-23
2023/10/12 07:34:26;;;;;;;2.03;1.30;;;20.30;81.30;;;;;;4954645;28;20050;-24
2023/10/12 07:36:57;;;;;;;2.03;1.27;;;20.50;88.90;;;;;;4961775;28;20109;-23
2023/10/12 07:39:38;;;;;;;2.30;1.35;;;19.30;88.30;;;;;;4973668;28;20117;-23
2023/10/12 07:42:05;;;;;;;3.53;1.10;;;19.90;83.80;;;;;;4966323;28;20046;-25
2023/10/12 07:44:41;;;;;;;2.63;1.40;;;19.70;70.60;;;;;;4960169;28;20407;-25
2023/10/12 07:47:18;;;;;;;2.38;1.20;;;;;;;;;;4964826;28;20395;-24
2023/10/12 07:49:49;;;;;;;2.60;1.30;;;19.50;83.10;;;;;;4973429;28;20055;-25
2023/10/12 07:52:31;;;;;;;2.28;1.20;;;;;;;;;;4957124;28;20092;-24
2023/10/12 07:54:59;;;;;;;2.10;1.20;;;;;;;;;;4964495;28;20054;-25
2023/10/12 07:57:30;;;;;;;2.70;1.30;;;;;;;;;;4953787;28;20082;-25
2023/10/12 08:00:29;;;;;;;3.15;1.35;;;19.50;71.40;;;;;;4954207;28;20055;-25
2023/10/12 08:06:07;;;;;;;4.80;1.40;;;20.30;88.60;;;;;;4917013;29;20625;-24
2023/10/12 08:08:33;;;;;;;3.25;1.20;;;18.60;74.80;;;;;;4932084;29;20056;-24
2023/10/12 08:11:08;;;;;;;3.22;1.30;;;19.50;74.70;;;;;;4944122;28;20066;-24
2023/10/12 08:13:39;;;;;;;2.97;1.40;;;;;;;;;;4953916;28;20122;-25
2023/10/12 08:16:15;;;;;;;4.00;1.30;;;19.50;83.60;;;;;;4990480;28;20455;-24
2023/10/12 08:21:31;;;;;;;3.58;1.20;;;;;;;;;;4975629;28;20348;-24
2023/10/12 08:24:01;;;;;;;3.20;1.40;;;19.70;70.20;;;;;;4974455;28;20149;-25
2023/10/12 08:26:47;;;;;;;3.08;1.30;;;20.10;88.40;;;;;;4975954;28;20061;-24
2023/10/12 08:29:21;;;;;;;2.83;1.15;;;20.10;73.50;;;;;;4957744;28;20078;-24
2023/10/12 08:31:55;;;;;;;2.95;1.20;;;19.60;87.10;;;;;;4967996;28;20049;-24
2023/10/12 08:37:18;;;;;;;2.17;1.20;;;;;;;;;;4969339;28;20047;-25
2023/10/12 08:40:07;;;;;;;2.20;1.10;;;19.60;70.10;;;;;;4973923;28;20050;-24
2023/10/12 08:42:41;;;;;;;3.03;1.40;;;;;;;;;;4975385;28;20130;-25
2023/10/12 08:45:18;;;;;;;4.30;1.40;;;;;;;;;;4974851;28;20508;-24
2023/10/12 08:47:48;;;;;;;3.25;1.25;;;19.70;70.10;;;;;;4975610;28;20438;-26
2023/10/12 08:53:03;;;;;;;3.35;1.30;;;19.50;70.10;;;;;;4975268;28;20061;-24
2023/10/12 08:55:32;;;;;;;3.65;1.45;;;19.60;70.10;;;;;;4975274;28;20524;-25
2023/10/12 08:58:03;;;;;;;2.60;1.20;;;19.60;70.10;;;;;;4972857;28;20045;-24
2023/10/12 09:00:40;;;;;;;3.53;1.30;;;20.10;88.20;;;;;;4975814;28;20050;-24
2023/10/12 09:03:24;;;;;;;2.65;1.10;;;19.80;87.20;;;;;;4974824;28;20051;-24
2023/10/12 09:05:52;;;;;;;2.80;1.20;;;;;;;;;;4975136;28;20401;-25
2023/10/12 09:11:13;;;;;;;1.88;1.20;;;19.80;87.80;;;;;;4974434;28;20054;-24
2023/10/12 09:13:45;;;;;;;3.17;1.20;;;18.60;87.60;;;;;;4973454;28;20489;-25
2023/10/12 09:16:14;;;;;;;2.38;1.30;;;19.50;76.50;;;;;;4974743;28;20061;-25
2023/10/12 09:18:46;;;;;;;2.55;1.00;;;20.70;88.30;;;;;;4975461;28;20050;-25
2023/10/12 09:21:23;;;;;;;2.13;1.20;;;19.60;70.00;;;;;;4975895;28;20051;-24
2023/10/12 09:23:52;;;;;;;2.60;1.13;;;20.10;88.30;;;;;;4974772;28;20082;-25
2023/10/12 09:26:30;;;;;;;4.10;1.33;;;20.00;88.10;;;;;;4972502;28;20527;-25
2023/10/12 09:29:08;;;;;;;2.80;1.35;;;19.10;87.70;;;;;;4973563;28;20039;-25
2023/10/12 09:31:57;;;;;;;3.10;1.10;;;18.50;86.90;;;;;;4972602;28;20085;-26
2023/10/12 09:34:42;;;;;;;2.45;1.17;;;19.90;85.70;;;;;;4972891;28;20054;-25
2023/10/12 09:37:16;;;;;;;2.33;1.10;;;19.50;83.20;;;;;;4970531;28;20053;-25
2023/10/12 09:39:45;;;;;;;3.17;1.15;;;20.40;87.90;;;;;;4972335;28;20117;-25
2023/10/12 09:42:14;;;;;;;3.40;1.40;;;;;;;;;;4975121;28;20053;-24
2023/10/12 09:44:45;;;;;;;3.15;1.13;;;19.60;87.30;;;;;;4972513;28;20057;-25
2023/10/12 09:47:16;;;;;;;4.18;1.30;;;;;;;;;;4975208;28;20074;-26
2023/10/12 09:49:54;;;;;;;2.67;1.10;;;19.30;79.40;;;;;;4975097;28;20047;-23
2023/10/12 09:52:21;;;;;;;2.53;1.20;;;19.60;73.20;;;;;;4975245;28;20086;-24
2023/10/12 09:54:52;;;;;;;1.60;0.90;;;19.60;69.70;;;;;;4974650;28;20070;-26
2023/10/12 09:57:23;;;;;;;1.98;1.00;;;20.40;87.70;;;;;;4971222;28;20047;-24
2023/10/12 09:59:53;;;;;;;2.08;1.02;;;19.50;69.60;;;;;;4971947;28;20512;-26
2023/10/12 10:02:28;;;;;;;3.42;1.25;;;19.70;87.40;;;;;;4975236;28;20051;-23
2023/10/12 10:05:11;;;;;;;2.20;1.10;;;19.80;87.80;;;;;;4975070;28;20086;-23
2023/10/12 10:07:39;;;;;;;7.38;1.35;;;20.10;87.90;;;;;;4974869;28;20492;-23
2023/10/12 10:10:16;;;;;;;2.45;1.08;;;20.40;87.60;;;;;;4975304;28;20101;-23
2023/10/12 10:12:43;;;;;;;3.83;1.30;;;;;;;;;;4972952;28;20447;-29
2023/10/12 10:15:20;;;;;;;1.98;1.10;;;19.20;70.30;;;;;;4981456;28;20054;-23
2023/10/12 10:17:52;;;;;;;2.17;1.10;;;19.30;86.80;;;;;;4993532;28;20129;-23
2023/10/12 10:23:14;;;;;;;2.22;1.10;;;19.60;69.50;;;;;;4993415;28;20050;-26
2023/10/12 10:25:45;;;;;;;2.65;1.20;;;19.40;87.10;;;;;;4993388;28;20062;-26
2023/10/12 10:28:18;;;;;;;3.00;1.00;;;19.00;69.50;;;;;;4991886;28;20658;-26
2023/10/12 10:30:49;;;;;;;3.17;1.30;;;19.60;87.30;;;;;;4977360;28;20114;-26
2023/10/12 10:33:17;;;;;;;2.92;1.25;;;19.10;87.10;;;;;;4954422;28;20127;-27
2023/10/12 10:36:01;;;;;;;2.90;1.20;;;19.70;79.50;;;;;;4954163;28;20051;-27
2023/10/12 10:38:32;;;;;;;3.20;1.30;;;19.70;73.30;;;;;;4953344;28;20051;-23
2023/10/12 10:41:07;;;;;;;3.38;1.20;;;19.60;69.50;;;;;;4954095;28;20479;-25
2023/10/12 10:43:37;;;;;;;3.42;1.52;;;19.70;73.20;;;;;;4954027;29;20086;-24
2023/10/12 10:46:06;;;;;;;2.22;1.13;;;19.30;87.30;;;;;;4954245;29;20047;-23
2023/10/12 10:48:36;;;;;;;4.40;1.30;;;20.00;87.60;;;;;;4971574;28;20073;-23
2023/10/12 10:51:07;;;;;;;1.80;1.08;;;19.10;87.20;;;;;;4992741;28;20078;-23
2023/10/12 10:53:37;;;;;;;2.88;1.13;;;19.70;69.50;;;;;;4992957;28;20051;-27
2023/10/12 10:56:12;;;;;;;4.35;1.15;;;19.60;69.60;;;;;;4976568;28;20080;-26
2023/10/12 10:58:40;;;;;;;2.67;1.20;;;19.80;69.70;;;;;;4973422;28;20105;-23
2023/10/12 11:01:12;;;;;;;2.33;1.10;;;19.70;69.60;;;;;;4967563;28;20054;-24
2023/10/12 11:03:39;;;;;;;3.75;1.45;;;20.20;87.80;;;;;;4972549;28;20046;-23
2023/10/12 11:06:21;;;;;;;3.90;1.50;;;19.70;69.60;;;;;;4959111;28;20059;-26
2023/10/12 11:09:01;;;;;;;3.75;1.35;;;19.70;87.30;;;;;;4953921;28;20053;-23
2023/10/12 11:11:37;;;;;;;4.13;1.35;;;;;;;;;;4956291;28;20401;-24
2023/10/12 11:14:04;;;;;;;2.72;1.10;;;19.90;87.80;;;;;;4964581;28;20134;-23
2023/10/12 11:16:32;;;;;;;3.25;1.20;;;;;;;;;;4963959;28;20070;-25
2023/10/12 11:18:59;;;;;;;3.50;1.23;;;18.60;72.80;;;;;;4966566;28;20105;-23
2023/10/12 11:21:27;;;;;;;4.20;1.30;;;20.00;87.90;;;;;;4990450;28;20128;-23
2023/10/12 11:24:01;;;;;;;3.25;1.35;;;20.70;70.30;;;;;;4972410;28;20047;-24
2023/10/12 11:26:27;;;;;;;6.53;1.40;;;19.90;83.50;;;;;;4972878;28;20046;-24
2023/10/12 11:29:04;;;;;;;3.15;1.33;;;19.70;69.90;;;;;;4972998;28;20078;-25
2023/10/12 11:31:31;;;;;;;3.97;1.30;;;19.90;87.70;;;;;;4972986;28;20558;-25
2023/10/12 11:33:58;;;;;;;6.40;1.60;;;19.90;72.30;;;;;;4972614;28;20054;-25
2023/10/12 11:36:27;;;;;;;4.35;1.20;;;19.70;70.00;;;;;;4968594;28;20484;-25
2023/10/12 11:39:00;;;;;;;5.78;1.60;;;20.00;73.80;;;;;;4970743;28;20129;-24
2023/10/12 11:41:27;;;;;;;2.88;1.40;;;19.70;88.10;;;;;;4972108;28;20090;-25
2023/10/12 11:43:57;;;;;;;4.72;1.35;;;19.90;87.80;;;;;;4972311;28;20463;-24
2023/10/12 11:46:24;;;;;;;4.13;1.50;;;19.60;81.00;;;;;;4972368;28;20198;-24
2023/10/12 11:49:05;;;;;;;4.25;1.27;;;19.20;87.90;;;;;;4972254;28;20106;-23
2023/10/12 11:51:39;;;;;;;6.18;1.65;;;19.70;70.20;;;;;;4971982;28;20047;-25
2023/10/12 11:54:09;;;;;;;3.53;1.33;;;18.70;87.30;;;;;;4971758;28;20042;-25
2023/10/12 11:56:43;;;;;;;2.83;1.30;;;19.70;70.20;;;;;;4971940;28;20046;-27
2023/10/12 11:59:14;;;;;;;3.47;1.30;;;19.60;81.60;;;;;;4969548;28;20075;-26
2023/10/12 12:01:41;;;;;;;3.83;1.40;;;;;;;;;;4971714;28;20492;-26
2023/10/12 12:04:15;;;;;;;4.55;1.60;;;;;;;;;;4971383;28;20057;-24
2023/10/12 12:06:45;;;;;;;4.55;1.42;;;19.00;70.00;;;;;;4969770;28;20460;-26
2023/10/12 12:09:16;;;;;;;3.08;1.30;;;18.80;87.60;;;;;;4972006;28;20500;-27
2023/10/12 12:11:44;;;;;;;3.78;1.17;;;;;;;;;;4969670;28;20579;-26
2023/10/12 12:14:11;;;;;;;5.03;1.40;;;;;;;;;;4973091;28;20119;-25
2023/10/12 12:16:38;;;;;;;3.58;1.30;;;19.90;86.60;;;;;;4970635;28;20051;-24
2023/10/12 12:19:05;;;;;;;1.95;1.10;;;19.80;71.70;;;;;;4971372;28;20046;-24
2023/10/12 12:21:34;;;;;;;4.70;1.60;;;19.90;88.50;;;;;;4971778;28;20074;-24
2023/10/12 12:24:21;;;;;;;3.22;1.40;;;19.70;70.50;;;;;;4971530;28;20142;-24
2023/10/12 12:26:49;;;;;;;3.28;1.23;;;;;;;;;;4970133;28;20890;-24
2023/10/12 12:29:21;;;;;;;5.05;1.30;;;18.70;88.00;;;;;;4970476;28;20054;-23
2023/10/12 12:31:49;;;;;;;3.22;1.10;;;19.50;88.40;;;;;;4968710;28;20043;-24
2023/10/12 12:34:34;;;;;;;3.08;1.30;;;20.70;85.10;;;;;;4971075;28;20140;-24
2023/10/12 12:37:04;;;;;;;2.63;1.20;;;20.70;88.70;;;;;;4969392;28;20057;-24
2023/10/12 12:39:34;;;;;;;2.30;1.20;;;19.60;70.60;;;;;;4971356;28;20043;-26
2023/10/12 12:42:00;;;;;;;2.67;1.30;;;19.00;88.00;;;;;;4971617;28;20061;-24
2023/10/12 12:44:26;;;;;;;2.22;1.13;;;19.80;88.50;;;;;;4971664;28;20038;-24
2023/10/12 12:46:54;;;;;;;4.65;1.30;;;;;;;;;;4970954;28;20046;-26
2023/10/12 12:49:21;;;;;;;2.40;1.10;;;20.30;89.00;;;;;;4971446;28;20050;-23
2023/10/12 12:51:49;;;;;;;4.90;1.83;;;19.70;79.30;;;;;;4970142;28;20677;-23
2023/10/12 12:54:17;;;;;;;8.35;4.13;;;;;;;;;;4953104;28;20070;-25
2023/10/12 12:56:46;;;;;;;16.15;5.68;;;19.60;70.70;;;;;;4970200;28;20094;-26
2023/10/12 12:59:13;;;;;;;20.20;7.15;;;;;;;;;;4971544;28;20110;-26
2023/10/12 13:01:41;;;;;;;31.50;8.95;;;;;;;;;;4968150;28;20137;-27
2023/10/12 13:04:10;;;;;;;31.15;9.20;;;19.90;83.80;;;;;;4967710;28;20083;-26
2023/10/12 13:06:38;;;;;;;30.40;8.57;;;19.40;88.90;;;;;;4974079;28;20054;-26
2023/10/12 13:09:05;;;;;;;28.75;7.90;;;;;;;;;;4975458;28;20126;-26
2023/10/12 13:11:33;;;;;;;26.67;7.40;;;;;;;;;;4989604;28;20538;-24
2023/10/12 13:14:01;;;;;;;30.60;7.00;;;19.70;71.80;;;;;;4993173;28;20050;-26
2023/10/12 13:16:28;;;;;;;20.58;6.90;;;20.40;90.00;;;;;;4974943;28;20083;-25
2023/10/12 13:18:55;;;;;;;22.27;7.47;;;;;;;;;;4978666;28;20082;-25
2023/10/12 13:21:22;;;;;;;24.02;6.60;;;18.70;89.50;;;;;;4975410;28;20105;-25
2023/10/12 13:23:51;;;;;;;23.45;6.25;;;;;;;;;;4975316;28;20088;-25
2023/10/12 13:26:19;;;;;;;20.02;6.50;;;19.50;89.80;;;;;;4975014;28;20051;-24
2023/10/12 13:28:46;;;;;;;25.10;7.10;;;19.70;90.00;;;;;;4970558;28;20054;-24
2023/10/12 13:31:14;;;;;;;21.95;6.55;;;19.70;72.30;;;;;;4974788;28;20051;-25
2023/10/12 13:33:42;;;;;;;21.75;6.03;;;19.40;72.20;;;;;;4972777;28;20098;-24
2023/10/12 13:36:09;;;;;;;19.52;6.15;;;20.00;90.10;;;;;;4970799;28;20050;-24
2023/10/12 13:38:37;;;;;;;15.90;5.55;;;19.90;89.90;;;;;;4973652;28;20039;-24
2023/10/12 13:41:05;;;;;;;18.67;5.90;;;;;;;;;;4971996;28;20051;-24
2023/10/12 13:43:32;;;;;;;19.13;5.18;;;19.50;87.10;;;;;;4973687;28;20134;-25
2023/10/12 13:45:59;;;;;;;18.13;5.93;;;19.60;74.60;;;;;;4974502;28;20492;-24
2023/10/12 13:48:28;;;;;;;19.65;5.15;;;19.40;77.50;;;;;;4975583;28;20043;-24
2023/10/12 13:50:59;;;;;;;17.30;5.03;;;;;;;;;;4975622;28;20055;-25
2023/10/12 13:53:26;;;;;;;14.95;4.70;;;19.90;90.10;;;;;;4972585;28;20130;-25
2023/10/12 13:55:53;;;;;;;19.15;5.32;;;19.20;90.00;;;;;;4974155;28;20054;-25
2023/10/12 13:58:23;;;;;;;14.00;5.10;;;19.50;89.70;;;;;;4966001;28;20043;-25